createdAt,value
2017-10-09T00:01:56.573Z,99032.78
2017-10-09T00:04:22.809Z,99033.63
2017-10-09T00:06:49.132Z,99037.95
2017-10-09T00:09:15.349Z,99030.94
2017-10-09T00:11:41.606Z,99033.87
2017-10-09T00:14:07.830Z,99037.63
2017-10-09T00:16:34.051Z,99030.41
2017-10-09T00:19:00.379Z,99037.57
2017-10-09T00:21:26.604Z,99037.08
2017-10-09T00:23:52.838Z,99036.83
2017-10-09T00:26:19.049Z,99034.00
2017-10-09T00:28:45.287Z,99036.10
2017-10-09T00:31:11.520Z,99034.52
2017-10-09T00:33:37.768Z,99037.70
2017-10-09T00:36:04.004Z,99031.99
2017-10-09T00:38:30.213Z,99030.37
2017-10-09T00:40:56.469Z,99031.97
2017-10-09T00:43:22.774Z,99034.55
2017-10-09T00:45:48.982Z,99037.80
2017-10-09T00:48:15.227Z,99037.61
2017-10-09T00:50:41.489Z,99036.45
2017-10-09T00:53:07.809Z,99040.50
2017-10-09T00:55:34.133Z,99043.88
2017-10-09T00:58:00.369Z,99042.50
2017-10-09T01:00:26.580Z,99040.14
2017-10-09T01:02:52.814Z,99047.41
2017-10-09T01:05:19.050Z,99043.31
2017-10-09T01:07:45.397Z,99047.26
2017-10-09T01:10:11.625Z,99043.20
2017-10-09T01:12:37.837Z,99042.21
2017-10-09T01:15:04.077Z,99046.98
2017-10-09T01:17:30.303Z,99054.04
2017-10-09T01:19:56.643Z,99045.27
2017-10-09T01:22:22.876Z,99047.67
2017-10-09T01:24:49.099Z,99047.00
2017-10-09T01:27:15.344Z,99048.42
2017-10-09T01:29:41.660Z,99049.78
2017-10-09T01:32:07.996Z,99043.05
2017-10-09T01:34:34.201Z,99048.44
2017-10-09T01:37:00.455Z,99040.25
2017-10-09T01:39:26.691Z,99035.41
2017-10-09T01:41:52.915Z,99038.29
2017-10-09T01:44:19.217Z,99041.78
2017-10-09T01:46:45.473Z,99039.79
2017-10-09T01:49:11.704Z,99044.59
2017-10-09T01:51:37.926Z,99043.98
2017-10-09T01:54:04.199Z,99040.39
2017-10-09T01:56:30.509Z,99038.92
2017-10-09T01:58:56.714Z,99041.52
2017-10-09T02:01:22.943Z,99044.47
2017-10-09T02:03:49.194Z,99046.39
2017-10-09T02:06:15.401Z,99047.75
2017-10-09T02:08:41.738Z,99051.69
2017-10-09T02:11:07.962Z,99050.23
2017-10-09T02:13:34.213Z,99053.38
2017-10-09T02:16:00.427Z,99056.52
2017-10-09T02:18:26.672Z,99055.45
2017-10-09T02:20:52.987Z,99051.95
2017-10-09T02:23:19.320Z,99051.78
2017-10-09T02:25:45.563Z,99059.52
2017-10-09T02:28:11.780Z,99058.55
2017-10-09T02:30:38.015Z,99059.62
2017-10-09T02:33:04.366Z,99057.63
2017-10-09T02:35:30.677Z,99062.69
2017-10-09T02:37:56.912Z,99065.26
2017-10-09T02:40:23.121Z,99070.02
2017-10-09T02:42:49.366Z,99064.66
2017-10-09T02:45:15.678Z,99063.72
2017-10-09T02:47:41.915Z,99064.17
2017-10-09T02:50:08.141Z,99071.09
2017-10-09T02:52:34.397Z,99071.98
2017-10-09T02:55:00.596Z,99068.39
2017-10-09T02:57:26.840Z,99064.86
2017-10-09T02:59:53.082Z,99065.08
2017-10-09T03:02:19.295Z,99068.74
2017-10-09T03:04:45.551Z,99068.13
2017-10-09T03:07:11.742Z,99066.85
2017-10-09T03:09:37.993Z,99064.14
2017-10-09T03:12:04.217Z,99063.61
2017-10-09T03:14:30.455Z,99062.54
2017-10-09T03:16:56.684Z,99069.03
2017-10-09T03:19:22.891Z,99067.64
2017-10-09T03:21:49.136Z,99067.42
2017-10-09T03:24:15.356Z,99075.41
2017-10-09T03:26:41.605Z,99078.22
2017-10-09T03:29:07.841Z,99077.58
2017-10-09T03:31:34.065Z,99077.25
2017-10-09T03:34:00.385Z,99071.34
2017-10-09T03:36:26.618Z,99075.89
2017-10-09T03:38:53.788Z,99077.35
2017-10-09T03:41:20.007Z,99080.56
2017-10-09T03:43:46.333Z,99082.45
2017-10-09T03:46:12.678Z,99080.25
2017-10-09T03:48:38.886Z,99084.81
2017-10-09T03:51:05.136Z,99077.27
2017-10-09T03:53:31.475Z,99081.61
2017-10-09T03:55:57.699Z,99084.80
2017-10-09T03:58:24.017Z,99085.23
2017-10-09T04:00:50.260Z,99092.25
2017-10-09T04:03:16.485Z,99088.11
2017-10-09T04:05:42.719Z,99083.55
2017-10-09T04:08:08.946Z,99087.39
2017-10-09T04:10:35.293Z,99090.03
2017-10-09T04:13:01.607Z,99092.38
2017-10-09T04:15:27.826Z,99097.25
2017-10-09T04:17:54.080Z,99094.70
2017-10-09T04:20:20.316Z,99100.91
2017-10-09T04:22:46.644Z,99103.88
2017-10-09T04:25:12.865Z,99106.29
2017-10-09T04:27:39.078Z,99110.89
2017-10-09T04:30:05.319Z,99115.88
2017-10-09T04:32:31.559Z,99122.27
2017-10-09T04:34:57.888Z,99116.14
2017-10-09T04:37:24.115Z,99119.66
2017-10-09T04:39:50.349Z,99116.32
2017-10-09T04:42:16.586Z,99113.25
2017-10-09T04:44:42.798Z,99119.08
2017-10-09T04:47:09.125Z,99122.67
2017-10-09T04:49:35.658Z,99130.82
2017-10-09T04:52:01.943Z,99125.73
2017-10-09T04:54:28.230Z,99129.15
2017-10-09T04:56:54.457Z,99131.21
2017-10-09T04:59:20.788Z,99130.50
2017-10-09T05:01:47.011Z,99136.77
2017-10-09T05:04:13.222Z,99139.67
2017-10-09T05:06:39.476Z,99141.36
2017-10-09T05:09:05.705Z,99134.20
2017-10-09T05:11:32.054Z,99130.16
2017-10-09T05:13:58.261Z,99138.28
2017-10-09T05:16:24.495Z,99142.18
2017-10-09T05:18:50.712Z,99138.63
2017-10-09T05:21:16.959Z,99142.36
2017-10-09T05:23:43.287Z,99149.52
2017-10-09T05:26:09.531Z,99151.00
2017-10-09T05:28:35.801Z,99152.33
2017-10-09T05:31:02.026Z,99153.64
2017-10-09T05:33:28.332Z,99158.78
2017-10-09T05:35:54.653Z,99166.02
2017-10-09T05:38:20.882Z,99163.03
2017-10-09T05:40:47.194Z,99167.12
2017-10-09T05:43:13.454Z,99168.22
2017-10-09T05:45:39.647Z,99169.32
2017-10-09T05:48:05.907Z,99171.08
2017-10-09T05:50:32.129Z,99173.25
2017-10-09T05:52:58.366Z,99173.38
2017-10-09T05:55:24.694Z,99174.66
2017-10-09T05:57:50.917Z,99170.45
2017-10-09T06:00:17.236Z,99169.51
2017-10-09T06:02:43.429Z,99167.41
2017-10-09T06:05:09.630Z,99174.59
2017-10-09T06:07:35.818Z,99164.09
2017-10-09T06:10:02.022Z,99173.16
2017-10-09T06:12:28.246Z,99172.05
2017-10-09T06:14:54.528Z,99170.63
2017-10-09T06:17:20.768Z,99169.77
2017-10-09T06:19:46.992Z,99172.11
2017-10-09T06:22:13.212Z,99173.45
2017-10-09T06:24:39.687Z,99168.55
2017-10-09T06:27:06.032Z,99175.68
2017-10-09T06:29:33.859Z,99183.86
2017-10-09T06:32:00.406Z,99186.70
2017-10-09T06:34:26.649Z,99190.25
2017-10-09T06:36:52.958Z,99190.45
2017-10-09T06:39:19.265Z,99184.85
2017-10-09T06:41:45.508Z,99189.62
2017-10-09T06:44:11.803Z,99192.56
2017-10-09T06:46:38.110Z,99184.78
2017-10-09T06:49:04.485Z,99180.15
2017-10-09T06:51:30.812Z,99176.98
2017-10-09T06:53:57.160Z,99182.86
2017-10-09T06:56:23.473Z,99178.38
2017-10-09T06:58:49.855Z,99182.88
2017-10-09T07:01:16.156Z,99178.28
2017-10-09T07:03:42.530Z,99188.91
2017-10-09T07:06:08.871Z,99172.84
2017-10-09T07:08:35.276Z,99185.64
2017-10-09T07:11:01.589Z,99192.91
2017-10-09T07:13:28.128Z,99192.92
2017-10-09T07:15:55.758Z,99197.67
2017-10-09T07:18:22.099Z,99182.23
2017-10-09T07:20:48.534Z,99199.27
2017-10-09T07:23:14.884Z,99198.09
2017-10-09T07:25:41.197Z,99213.03
2017-10-09T07:28:08.473Z,99215.16
2017-10-09T07:30:34.946Z,99221.50
2017-10-09T07:33:01.371Z,99215.83
2017-10-09T07:35:27.763Z,99221.63
2017-10-09T07:37:54.104Z,99227.09
2017-10-09T07:40:20.385Z,99221.66
2017-10-09T07:42:46.704Z,99232.42
2017-10-09T07:45:14.514Z,99223.19
2017-10-09T07:47:41.856Z,99227.80
2017-10-09T07:50:09.026Z,99232.02
2017-10-09T07:52:35.282Z,99238.03
2017-10-09T07:55:01.636Z,99235.91
2017-10-09T07:57:27.941Z,99240.12
2017-10-09T07:59:54.265Z,99238.25
2017-10-09T08:02:21.394Z,99249.45
2017-10-09T08:04:47.699Z,99250.62
2017-10-09T08:07:14.061Z,99250.23
2017-10-09T08:09:40.319Z,99258.90
2017-10-09T08:12:07.534Z,99258.06
2017-10-09T08:14:33.910Z,99259.05
2017-10-09T08:17:00.362Z,99249.51
2017-10-09T08:19:27.301Z,99254.86
2017-10-09T08:21:53.593Z,99249.93
2017-10-09T08:24:20.181Z,99256.63
2017-10-09T08:26:46.480Z,99256.45
2017-10-09T08:29:12.775Z,99262.23
2017-10-09T08:31:39.072Z,99249.53
2017-10-09T08:34:05.437Z,99254.22
2017-10-09T08:36:32.154Z,99258.61
2017-10-09T08:38:58.487Z,99253.37
2017-10-09T08:41:24.764Z,99247.63
2017-10-09T08:43:51.188Z,99251.08
2017-10-09T08:46:17.544Z,99263.09
2017-10-09T08:48:44.674Z,99265.03
2017-10-09T08:51:11.013Z,99257.28
2017-10-09T08:53:37.306Z,99252.22
2017-10-09T08:56:03.655Z,99260.34
2017-10-09T08:58:30.979Z,99259.72
2017-10-09T09:00:57.308Z,99259.87
2017-10-09T09:03:23.729Z,99262.14
2017-10-09T09:05:50.073Z,99259.95
2017-10-09T09:08:16.741Z,99266.23
2017-10-09T09:10:43.081Z,99255.52
2017-10-09T09:13:09.491Z,99265.09
2017-10-09T09:15:39.124Z,99253.64
2017-10-09T09:18:08.851Z,99252.56
2017-10-09T09:23:05.797Z,99249.23
2017-10-09T09:25:32.191Z,99253.90
2017-10-09T09:27:58.594Z,99258.25
2017-10-09T09:30:25.039Z,99262.29
2017-10-09T09:32:51.435Z,99261.69
2017-10-09T09:35:17.851Z,99267.65
2017-10-09T09:37:44.636Z,99261.23
2017-10-09T09:40:12.396Z,99273.51
2017-10-09T09:42:39.769Z,99273.02
2017-10-09T09:45:06.393Z,99269.94
2017-10-09T09:47:32.798Z,99281.33
2017-10-09T09:50:00.353Z,99275.78
2017-10-09T09:52:26.716Z,99281.62
2017-10-09T09:54:53.119Z,99277.66
2017-10-09T09:57:19.569Z,99285.19
2017-10-09T10:02:21.132Z,99275.54
2017-10-09T10:04:47.604Z,99281.04
2017-10-09T10:07:13.979Z,99270.56
2017-10-09T10:09:42.140Z,99261.66
2017-10-09T10:12:09.073Z,99253.27
2017-10-09T10:14:35.638Z,99265.61
2017-10-09T10:17:03.585Z,99274.43
2017-10-09T10:24:59.221Z,99279.02
2017-10-09T10:27:25.661Z,99283.09
2017-10-09T10:29:52.276Z,99274.55
2017-10-09T10:32:18.698Z,99276.40
2017-10-09T10:34:47.156Z,99271.09
2017-10-09T10:37:17.072Z,99261.70
2017-10-09T10:40:32.059Z,99266.85
2017-10-09T10:45:49.893Z,99269.65
2017-10-09T10:51:07.357Z,99263.82
2017-10-09T10:53:39.116Z,99269.63
2017-10-09T10:56:06.872Z,99262.08
2017-10-09T10:58:42.844Z,99254.77
2017-10-09T11:01:18.073Z,99245.52
2017-10-09T11:03:45.986Z,99251.94
2017-10-09T11:06:12.305Z,99252.16
2017-10-09T11:08:38.511Z,99251.04
2017-10-09T11:11:04.756Z,99258.82
2017-10-09T11:13:30.967Z,99255.72
2017-10-09T11:15:57.212Z,99252.66
2017-10-09T11:18:23.476Z,99249.75
2017-10-09T11:20:49.685Z,99236.55
2017-10-09T11:23:15.902Z,99253.41
2017-10-09T11:25:42.110Z,99255.84
2017-10-09T11:28:08.368Z,99258.19
2017-10-09T11:30:34.655Z,99269.30
2017-10-09T11:33:00.888Z,99268.55
2017-10-09T11:35:27.111Z,99267.50
2017-10-09T11:37:53.373Z,99261.34
2017-10-09T11:40:19.612Z,99263.45
2017-10-09T11:42:45.846Z,99253.79
2017-10-09T11:45:12.095Z,99259.84
2017-10-09T11:47:38.309Z,99253.14
2017-10-09T11:50:04.525Z,99256.47
2017-10-09T11:52:30.773Z,99262.11
2017-10-09T11:54:57.137Z,99254.77
2017-10-09T11:57:23.387Z,99256.72
2017-10-09T11:59:49.631Z,99260.37
2017-10-09T12:02:15.908Z,99255.66
2017-10-09T12:04:42.148Z,99252.38
2017-10-09T12:07:08.400Z,99255.75
2017-10-09T12:09:34.595Z,99252.16
2017-10-09T12:12:00.813Z,99243.98
2017-10-09T12:14:27.287Z,99235.42
2017-10-09T12:16:53.562Z,99237.95
2017-10-09T12:19:19.799Z,99241.36
2017-10-09T12:21:46.019Z,99245.75
2017-10-09T12:24:12.272Z,99243.36
2017-10-09T12:26:38.527Z,99251.80
2017-10-09T12:29:04.757Z,99253.83
2017-10-09T12:31:30.978Z,99246.39
2017-10-09T12:33:57.370Z,99247.97
2017-10-09T12:36:23.609Z,99243.53
2017-10-09T12:38:49.889Z,99251.30
2017-10-09T12:41:16.093Z,99245.55
2017-10-09T12:43:42.318Z,99257.98
2017-10-09T12:46:08.509Z,99261.86
2017-10-09T12:48:34.739Z,99250.41
2017-10-09T12:51:01.000Z,99255.25
2017-10-09T12:53:27.211Z,99257.06
2017-10-09T12:55:53.448Z,99264.62
2017-10-09T12:58:19.662Z,99254.41
2017-10-09T13:00:45.870Z,99260.30
2017-10-09T13:03:12.106Z,99267.66
2017-10-09T13:05:38.351Z,99268.98
2017-10-09T13:08:04.588Z,99266.15
2017-10-09T13:10:30.782Z,99276.47
2017-10-09T13:12:56.977Z,99278.50
2017-10-09T13:15:23.210Z,99272.56
2017-10-09T13:17:49.422Z,99280.59
2017-10-09T13:20:15.676Z,99265.16
2017-10-09T13:22:41.881Z,99266.78
2017-10-09T13:25:08.112Z,99269.09
2017-10-09T13:27:34.343Z,99272.02
2017-10-09T13:30:00.537Z,99275.79
2017-10-09T13:32:26.742Z,99272.27
2017-10-09T13:34:52.948Z,99269.59
2017-10-09T13:37:19.167Z,99266.98
2017-10-09T13:39:45.426Z,99264.77
2017-10-09T13:42:11.628Z,99259.09
2017-10-09T13:44:37.828Z,99256.88
2017-10-09T13:47:04.032Z,99260.74
2017-10-09T13:49:30.226Z,99261.42
2017-10-09T13:51:56.476Z,99264.64
2017-10-09T13:54:22.690Z,99252.08
2017-10-09T13:56:48.870Z,99254.81
2017-10-09T13:59:15.049Z,99260.20
2017-10-09T14:01:41.280Z,99255.95
2017-10-09T14:04:07.526Z,99266.02
2017-10-09T14:06:33.728Z,99264.86
2017-10-09T14:08:59.962Z,99256.98
2017-10-09T14:11:26.183Z,99259.42
2017-10-09T14:13:52.366Z,99262.77
2017-10-09T14:16:18.581Z,99261.82
2017-10-09T14:18:44.769Z,99266.55
2017-10-09T14:21:11.006Z,99263.81
2017-10-09T14:23:37.189Z,99266.25
2017-10-09T14:26:03.441Z,99269.59
2017-10-09T14:28:29.774Z,99266.28
2017-10-09T14:30:55.987Z,99258.94
2017-10-09T14:40:40.762Z,99266.87
2017-10-09T14:43:06.956Z,99271.73
2017-10-09T14:45:33.179Z,99280.23
2017-10-09T14:47:59.414Z,99274.28
2017-10-09T14:50:25.668Z,99277.78
2017-10-09T14:52:51.926Z,99284.11
2017-10-09T14:55:18.174Z,99287.80
2017-10-09T14:57:44.373Z,99284.58
2017-10-09T15:00:10.625Z,99278.55
2017-10-09T15:02:36.825Z,99281.77
2017-10-09T15:05:03.068Z,99288.51
2017-10-09T15:07:29.277Z,99287.00
2017-10-09T15:09:55.460Z,99289.09
2017-10-09T15:12:21.713Z,99287.20
2017-10-09T15:14:47.956Z,99293.22
2017-10-09T15:17:14.192Z,99296.60
2017-10-09T15:19:40.388Z,99296.37
2017-10-09T15:22:06.600Z,99304.38
2017-10-09T15:24:32.845Z,99305.60
2017-10-09T15:26:59.041Z,99303.14
2017-10-09T15:29:25.242Z,99305.86
2017-10-09T15:31:51.454Z,99310.03
2017-10-09T15:34:17.663Z,99314.20
2017-10-09T15:36:43.885Z,99311.49
2017-10-09T15:39:10.095Z,99312.87
2017-10-09T15:41:36.297Z,99323.26
2017-10-09T15:44:02.503Z,99318.13
2017-10-09T15:46:28.719Z,99321.99
2017-10-09T15:48:54.951Z,99328.01
2017-10-09T15:51:21.244Z,99327.50
2017-10-09T15:53:47.460Z,99332.47
2017-10-09T15:56:13.673Z,99332.21
2017-10-09T15:58:39.876Z,99339.75
2017-10-09T16:01:06.131Z,99344.75
2017-10-09T16:03:32.346Z,99351.45
2017-10-09T16:05:58.583Z,99352.72
2017-10-09T16:08:24.819Z,99359.86
2017-10-09T16:10:51.036Z,99361.25
2017-10-09T16:13:17.292Z,99368.85
2017-10-09T16:15:43.526Z,99367.59
2017-10-09T16:18:10.127Z,99372.05
2017-10-09T16:20:36.430Z,99368.93
2017-10-09T16:23:02.801Z,99374.78
2017-10-09T16:25:29.055Z,99379.55
2017-10-09T16:27:55.319Z,99390.59
2017-10-09T16:30:21.698Z,99388.08
2017-10-09T16:32:48.066Z,99390.98
2017-10-09T16:35:14.326Z,99397.89
2017-10-09T16:37:40.640Z,99400.38
2017-10-09T16:40:06.874Z,99409.53
2017-10-09T16:42:33.143Z,99405.18
2017-10-09T16:44:59.463Z,99408.79
2017-10-09T16:47:25.737Z,99416.47
2017-10-09T16:49:53.817Z,99411.09
2017-10-09T16:52:20.198Z,99414.48
2017-10-09T16:54:46.535Z,99416.70
2017-10-09T16:57:12.943Z,99417.36
2017-10-09T16:59:39.303Z,99415.83
2017-10-09T17:02:05.605Z,99421.49
2017-10-09T17:04:31.949Z,99425.57
2017-10-09T17:06:58.249Z,99429.64
2017-10-09T17:09:24.475Z,99435.38
2017-10-09T17:11:50.736Z,99435.85
2017-10-09T17:14:17.111Z,99434.61
2017-10-09T17:16:43.417Z,99449.33
2017-10-09T17:19:09.804Z,99448.08
2017-10-09T17:21:36.065Z,99454.40
2017-10-09T17:24:02.545Z,99449.28
2017-10-09T17:26:28.777Z,99458.09
2017-10-09T17:28:55.046Z,99468.25
2017-10-09T17:31:21.459Z,99456.41
2017-10-09T17:36:29.969Z,99463.14
2017-10-09T17:38:56.388Z,99466.66
2017-10-09T17:41:22.700Z,99464.20
2017-10-09T17:43:48.987Z,99461.78
2017-10-09T17:46:15.330Z,99463.88
2017-10-09T17:48:41.548Z,99462.53
2017-10-09T17:51:07.730Z,99469.02
2017-10-09T17:53:34.046Z,99463.91
2017-10-09T17:56:00.357Z,99472.20
2017-10-09T17:58:26.687Z,99474.13
2017-10-09T18:00:52.907Z,99474.88
2017-10-09T18:03:19.139Z,99478.41
2017-10-09T18:05:45.484Z,99478.09
2017-10-09T18:08:11.712Z,99476.83
2017-10-09T18:10:37.942Z,99484.74
2017-10-09T18:13:04.165Z,99479.73
2017-10-09T18:15:30.398Z,99479.16
2017-10-09T18:17:56.716Z,99485.72
2017-10-09T18:20:22.968Z,99490.13
2017-10-09T18:22:49.211Z,99498.34
2017-10-09T18:25:15.696Z,99497.48
2017-10-09T18:27:42.929Z,99495.12
2017-10-09T18:30:09.494Z,99494.56
2017-10-09T18:32:35.767Z,99494.81
2017-10-09T18:35:02.075Z,99499.67
2017-10-09T18:37:28.326Z,99497.63
2017-10-09T18:39:54.548Z,99507.64
2017-10-09T18:42:20.917Z,99507.09
2017-10-09T18:44:47.216Z,99508.66
2017-10-09T18:47:13.434Z,99514.75
2017-10-09T18:49:39.669Z,99505.88
2017-10-09T18:52:05.904Z,99510.36
2017-10-09T18:54:32.265Z,99512.14
2017-10-09T18:56:58.469Z,99507.33
2017-10-09T18:59:24.812Z,99510.51
2017-10-09T19:01:51.123Z,99512.50
2017-10-09T19:04:17.353Z,99509.25
2017-10-09T19:06:43.658Z,99516.18
2017-10-09T19:09:09.927Z,99514.42
2017-10-09T19:11:36.238Z,99518.17
2017-10-09T19:14:02.487Z,99522.97
2017-10-09T19:16:28.944Z,99528.03
2017-10-09T19:18:55.285Z,99522.09
2017-10-09T19:21:21.611Z,99533.11
2017-10-09T19:23:47.988Z,99535.05
2017-10-09T19:26:14.351Z,99536.43
2017-10-09T19:28:40.566Z,99534.50
2017-10-09T19:31:06.796Z,99538.14
2017-10-09T19:33:33.036Z,99536.36
2017-10-09T19:35:59.278Z,99540.14
2017-10-09T19:38:25.602Z,99544.73
2017-10-09T19:40:51.817Z,99544.67
2017-10-09T19:43:18.153Z,99546.47
2017-10-09T19:45:44.396Z,99541.44
2017-10-09T19:48:10.727Z,99541.55
2017-10-09T19:50:37.037Z,99546.58
2017-10-09T19:53:03.281Z,99551.70
2017-10-09T19:55:29.532Z,99548.32
2017-10-09T19:57:55.861Z,99547.89
2017-10-09T20:00:22.169Z,99544.06
2017-10-09T20:02:48.616Z,99542.88
2017-10-09T20:05:14.831Z,99550.27
2017-10-09T20:07:41.085Z,99552.25
2017-10-09T20:10:07.295Z,99550.65
2017-10-09T20:12:33.498Z,99552.09
2017-10-09T20:14:59.743Z,99559.15
2017-10-09T20:17:25.968Z,99556.75
2017-10-09T20:19:52.217Z,99562.33
2017-10-09T20:22:18.447Z,99564.47
2017-10-09T20:24:44.692Z,99562.69
2017-10-09T20:27:10.987Z,99564.37
2017-10-09T20:29:37.233Z,99565.03
2017-10-09T20:32:03.476Z,99564.24
2017-10-09T20:34:29.794Z,99564.23
2017-10-09T20:36:56.680Z,99567.09
2017-10-09T20:39:22.960Z,99567.42
2017-10-09T20:41:49.205Z,99571.12
2017-10-09T20:44:15.707Z,99567.81
2017-10-09T20:46:41.975Z,99571.64
2017-10-09T20:49:08.302Z,99566.49
2017-10-09T20:51:34.648Z,99567.37
2017-10-09T20:54:00.951Z,99574.98
2017-10-09T20:56:27.186Z,99573.64
2017-10-09T20:58:53.414Z,99575.73
2017-10-09T21:01:19.642Z,99571.77
2017-10-09T21:03:45.966Z,99568.83
2017-10-09T21:06:12.214Z,99569.41
2017-10-09T21:08:38.423Z,99569.34
2017-10-09T21:11:04.658Z,99565.10
2017-10-09T21:13:30.896Z,99570.02
2017-10-09T21:15:57.144Z,99568.05
2017-10-09T21:18:23.347Z,99570.80
2017-10-09T21:20:49.601Z,99568.30
2017-10-09T21:23:15.927Z,99574.52
2017-10-09T21:25:42.138Z,99569.92
2017-10-09T21:28:08.467Z,99568.14
2017-10-09T21:30:34.709Z,99574.61
2017-10-09T21:33:00.900Z,99579.81
2017-10-09T21:35:27.158Z,99580.06
2017-10-09T21:37:53.409Z,99581.66
2017-10-09T21:40:19.722Z,99580.01
2017-10-09T21:42:45.971Z,99583.66
2017-10-09T21:45:12.709Z,99581.77
2017-10-09T21:47:38.918Z,99578.81
2017-10-09T21:50:05.152Z,99575.45
2017-10-09T21:52:31.403Z,99575.67
2017-10-09T21:54:57.629Z,99574.02
2017-10-09T21:57:23.866Z,99572.87
2017-10-09T21:59:50.131Z,99571.66
2017-10-09T22:02:16.423Z,99573.26
2017-10-09T22:04:42.729Z,99573.64
2017-10-09T22:07:08.966Z,99568.48
2017-10-09T22:09:35.224Z,99574.66
2017-10-09T22:12:01.439Z,99574.03
2017-10-09T22:14:27.663Z,99577.30
2017-10-09T22:16:53.977Z,99574.89
2017-10-09T22:19:20.208Z,99588.73
2017-10-09T22:21:46.448Z,99580.52
2017-10-09T22:24:12.685Z,99591.77
2017-10-09T22:26:38.918Z,99583.43
2017-10-09T22:29:05.277Z,99590.98
2017-10-09T22:31:31.579Z,99577.98
2017-10-09T22:33:57.899Z,99586.93
2017-10-09T22:36:24.147Z,99586.97
2017-10-09T22:38:50.577Z,99589.05
2017-10-09T22:41:16.896Z,99589.48
2017-10-09T22:43:43.135Z,99588.13
2017-10-09T22:46:09.365Z,99585.49
2017-10-09T22:48:35.710Z,99589.09
2017-10-09T22:51:01.938Z,99589.02
2017-10-09T22:53:28.213Z,99588.63
2017-10-09T22:55:54.392Z,99600.23
2017-10-09T22:58:20.603Z,99590.58
2017-10-09T23:00:46.837Z,99597.40
2017-10-09T23:03:13.067Z,99594.92
2017-10-09T23:05:39.288Z,99590.78
2017-10-09T23:08:05.527Z,99602.63
2017-10-09T23:10:31.792Z,99604.77
2017-10-09T23:12:58.115Z,99599.80
2017-10-09T23:15:24.333Z,99602.97
2017-10-09T23:17:50.554Z,99599.03
2017-10-09T23:20:16.887Z,99600.78
2017-10-09T23:22:43.112Z,99606.78
2017-10-09T23:25:09.347Z,99598.39
2017-10-09T23:27:35.560Z,99607.55
2017-10-09T23:30:01.802Z,99605.41
2017-10-09T23:32:28.057Z,99607.94
2017-10-09T23:34:54.257Z,99603.55
2017-10-09T23:37:20.483Z,99608.17
2017-10-09T23:39:46.715Z,99608.89
2017-10-09T23:42:12.976Z,99615.99
2017-10-09T23:44:39.283Z,99612.10
2017-10-09T23:47:05.536Z,99612.02
2017-10-09T23:49:31.756Z,99616.54
2017-10-09T23:51:57.982Z,99616.90
2017-10-09T23:54:24.222Z,99617.59
2017-10-09T23:56:50.544Z,99613.58
2017-10-09T23:59:16.771Z,99608.77
